createdAt,value
2023-05-22T00:01:51.855Z,7.90
2023-05-22T00:05:58.832Z,8.48
2023-05-22T00:10:01.071Z,9.40
2023-05-22T00:14:03.172Z,10.05
2023-05-22T00:18:06.337Z,9.52
2023-05-22T00:22:09.592Z,8.55
2023-05-22T00:26:16.432Z,9.70
2023-05-22T00:30:18.600Z,10.50
2023-05-22T00:34:20.774Z,11.15
2023-05-22T00:38:34.426Z,11.88
2023-05-22T00:42:36.609Z,11.98
2023-05-22T00:46:38.704Z,9.98
2023-05-22T00:50:41.880Z,10.43
2023-05-22T00:54:44.251Z,9.82
2023-05-22T00:58:46.807Z,9.27
2023-05-22T01:02:49.161Z,9.73
2023-05-22T01:06:51.040Z,9.50
2023-05-22T01:11:22.149Z,9.32
2023-05-22T01:15:43.152Z,9.98
2023-05-22T01:20:09.811Z,10.30
2023-05-22T01:24:32.874Z,9.85
2023-05-22T01:29:07.065Z,9.23
2023-05-22T01:33:12.307Z,9.30
2023-05-22T01:37:15.232Z,9.45
2023-05-22T01:41:17.346Z,9.60
2023-05-22T01:45:21.310Z,9.73
2023-05-22T01:49:23.553Z,8.85
2023-05-22T01:54:06.015Z,11.32
2023-05-22T01:58:24.497Z,8.80
2023-05-22T02:02:28.562Z,9.35
2023-05-22T02:06:33.401Z,8.98
2023-05-22T02:10:37.844Z,9.25
2023-05-22T02:14:42.522Z,9.38
2023-05-22T02:18:45.411Z,9.63
2023-05-22T02:22:48.020Z,9.38
2023-05-22T02:26:50.148Z,9.10
2023-05-22T02:30:52.743Z,9.30
2023-05-22T02:34:54.957Z,9.27
2023-05-22T02:38:57.084Z,10.13
2023-05-22T02:42:59.210Z,9.38
2023-05-22T02:47:02.252Z,9.57
2023-05-22T02:51:04.813Z,8.85
2023-05-22T02:55:08.245Z,9.70
2023-05-22T02:59:10.396Z,10.18
2023-05-22T03:03:12.808Z,10.30
2023-05-22T03:07:17.059Z,7.93
2023-05-22T03:11:18.856Z,9.05
2023-05-22T03:15:21.465Z,9.73
2023-05-22T03:19:26.313Z,8.88
2023-05-22T03:23:28.586Z,9.23
2023-05-22T03:27:30.995Z,9.45
2023-05-22T03:31:33.796Z,9.35
2023-05-22T03:35:48.604Z,9.07
2023-05-22T03:39:50.766Z,10.05
2023-05-22T03:44:00.796Z,7.88
2023-05-22T03:48:02.884Z,10.38
2023-05-22T03:52:05.306Z,9.95
2023-05-22T03:56:07.573Z,9.68
2023-05-22T04:00:10.145Z,10.13
2023-05-22T04:04:16.603Z,9.90
2023-05-22T04:08:18.711Z,8.95
2023-05-22T04:12:20.935Z,8.60
2023-05-22T04:16:24.838Z,9.38
2023-05-22T04:20:27.234Z,7.90
2023-05-22T04:24:29.232Z,9.00
2023-05-22T04:28:34.873Z,7.53
2023-05-22T04:32:37.112Z,7.93
2023-05-22T04:36:39.153Z,7.25
2023-05-22T04:40:41.424Z,7.10
2023-05-22T04:44:43.751Z,7.43
2023-05-22T04:48:47.278Z,6.63
2023-05-22T04:52:51.046Z,7.03
2023-05-22T04:56:53.189Z,5.50
2023-05-22T05:00:57.785Z,5.35
2023-05-22T05:04:59.964Z,5.60
2023-05-22T05:09:02.083Z,5.72
2023-05-22T05:13:04.633Z,5.40
2023-05-22T05:17:11.359Z,5.50
2023-05-22T05:21:15.166Z,4.28
2023-05-22T05:25:18.114Z,4.68
2023-05-22T05:29:20.275Z,5.03
2023-05-22T05:33:37.368Z,4.28
2023-05-22T05:37:59.670Z,5.07
2023-05-22T05:42:03.167Z,3.85
2023-05-22T05:46:06.127Z,4.78
2023-05-22T05:50:09.713Z,4.50
2023-05-22T05:54:13.499Z,3.90
2023-05-22T05:58:15.759Z,4.13
2023-05-22T06:02:28.968Z,3.95
2023-05-22T06:06:36.736Z,3.70
2023-05-22T06:10:50.668Z,4.15
2023-05-22T06:15:08.744Z,3.95
2023-05-22T06:19:12.891Z,4.18
2023-05-22T06:23:15.198Z,3.97
2023-05-22T06:27:17.595Z,3.53
2023-05-22T06:31:20.291Z,3.80
2023-05-22T06:35:24.291Z,3.85
2023-05-22T06:39:26.768Z,4.22
2023-05-22T06:43:41.334Z,4.18
2023-05-22T06:47:47.343Z,3.53
2023-05-22T06:51:49.921Z,3.40
2023-05-22T06:55:52.562Z,4.30
2023-05-22T07:00:12.614Z,3.70
2023-05-22T07:04:32.565Z,3.35
2023-05-22T07:08:48.121Z,3.90
2023-05-22T07:12:50.132Z,3.65
2023-05-22T07:16:52.764Z,3.58
2023-05-22T07:21:01.636Z,2.95
2023-05-22T07:25:04.905Z,3.25
2023-05-22T07:29:08.872Z,2.90
2023-05-22T07:33:11.711Z,3.63
2023-05-22T07:37:14.458Z,3.28
2023-05-22T07:41:19.161Z,3.03
2023-05-22T07:45:21.907Z,3.25
2023-05-22T07:49:26.637Z,2.72
2023-05-22T07:53:28.823Z,2.75
2023-05-22T07:57:36.336Z,2.30
2023-05-22T08:01:46.549Z,2.67
2023-05-22T08:05:48.731Z,3.22
2023-05-22T08:09:51.081Z,2.67
2023-05-22T08:13:53.062Z,2.40
2023-05-22T08:17:55.188Z,1.80
2023-05-22T08:21:58.221Z,1.63
2023-05-22T08:26:00.577Z,3.55
2023-05-22T08:30:04.578Z,1.80
2023-05-22T08:34:07.275Z,1.90
2023-05-22T08:38:09.325Z,2.20
2023-05-22T08:42:11.547Z,2.13
2023-05-22T08:46:16.234Z,1.88
2023-05-22T08:50:19.702Z,1.80
2023-05-22T08:54:23.247Z,2.03
2023-05-22T08:58:26.848Z,2.30
2023-05-22T09:02:28.944Z,2.38
2023-05-22T09:06:31.865Z,2.08
2023-05-22T09:10:35.027Z,2.10
2023-05-22T09:14:41.657Z,3.03
2023-05-22T09:18:44.514Z,2.58
2023-05-22T09:22:47.423Z,2.45
2023-05-22T09:26:52.479Z,2.60
2023-05-22T09:30:55.640Z,2.53
2023-05-22T09:35:04.721Z,2.00
2023-05-22T09:39:07.495Z,1.80
2023-05-22T09:43:10.930Z,2.08
2023-05-22T09:47:13.046Z,2.15
2023-05-22T09:51:16.519Z,2.25
2023-05-22T09:55:21.647Z,2.72
2023-05-22T09:59:30.077Z,2.10
2023-05-22T10:03:34.881Z,2.30
2023-05-22T10:07:44.018Z,1.98
2023-05-22T10:11:47.392Z,2.38
2023-05-22T10:15:50.561Z,2.58
2023-05-22T10:19:54.373Z,2.33
2023-05-22T10:23:57.906Z,2.38
2023-05-22T10:28:00.529Z,2.58
2023-05-22T10:32:40.580Z,2.80
2023-05-22T10:37:13.240Z,2.00
2023-05-22T10:41:19.458Z,2.53
2023-05-22T10:45:21.676Z,1.95
2023-05-22T10:49:24.224Z,2.42
2023-05-22T10:53:28.111Z,2.35
2023-05-22T10:57:35.741Z,1.85
2023-05-22T11:01:40.217Z,2.05
2023-05-22T11:10:01.362Z,2.50
2023-05-22T11:14:04.308Z,2.60
2023-05-22T11:18:06.858Z,2.50
2023-05-22T11:22:09.292Z,2.47
2023-05-22T11:26:19.917Z,2.53
2023-05-22T11:30:26.183Z,2.00
2023-05-22T11:34:28.417Z,2.20
2023-05-22T11:38:30.741Z,2.45
2023-05-22T11:42:33.564Z,2.20
2023-05-22T11:46:35.883Z,2.47
2023-05-22T11:50:42.216Z,2.38
2023-05-22T11:54:47.115Z,2.25
2023-05-22T11:58:49.947Z,2.08
2023-05-22T12:02:52.275Z,2.70
2023-05-22T12:06:55.307Z,2.38
2023-05-22T12:10:57.742Z,2.67
2023-05-22T12:14:59.776Z,2.00
2023-05-22T12:19:09.013Z,2.67
2023-05-22T12:23:12.407Z,2.83
2023-05-22T12:27:15.388Z,2.17
2023-05-22T12:31:22.194Z,2.40
2023-05-22T12:35:25.306Z,2.80
2023-05-22T12:39:28.980Z,2.45
2023-05-22T12:43:31.199Z,2.38
2023-05-22T12:47:33.265Z,1.88
2023-05-22T12:51:35.427Z,2.17
2023-05-22T12:55:38.571Z,2.05
2023-05-22T12:59:40.806Z,2.25
2023-05-22T13:03:43.005Z,2.08
2023-05-22T13:07:45.095Z,2.28
2023-05-22T13:11:48.057Z,2.50
2023-05-22T13:15:50.318Z,1.90
2023-05-22T13:19:54.058Z,2.45
2023-05-22T13:23:56.660Z,2.47
2023-05-22T13:28:02.063Z,3.17
2023-05-22T13:32:04.697Z,2.28
2023-05-22T13:36:07.039Z,2.50
2023-05-22T13:40:09.896Z,2.38
2023-05-22T13:44:12.067Z,2.28
2023-05-22T13:48:14.242Z,2.00
2023-05-22T13:52:16.407Z,2.20
2023-05-22T13:56:18.601Z,2.25
2023-05-22T14:00:21.171Z,1.95
2023-05-22T14:04:23.832Z,3.42
2023-05-22T14:08:25.925Z,2.55
2023-05-22T14:12:28.092Z,2.50
2023-05-22T14:16:30.201Z,1.90
2023-05-22T14:20:32.285Z,2.28
2023-05-22T14:24:34.492Z,2.10
2023-05-22T14:28:36.536Z,2.42
2023-05-22T14:32:38.980Z,2.25
2023-05-22T14:36:41.187Z,2.20
2023-05-22T14:40:43.284Z,2.17
2023-05-22T14:44:45.361Z,2.55
2023-05-22T14:48:47.487Z,2.15
2023-05-22T14:52:49.939Z,2.80
2023-05-22T14:56:52.037Z,1.88
2023-05-22T15:00:54.147Z,2.42
2023-05-22T15:04:56.440Z,2.47
2023-05-22T15:08:58.525Z,1.95
2023-05-22T15:13:00.678Z,2.40
2023-05-22T15:17:02.806Z,2.33
2023-05-22T15:21:04.999Z,1.92
2023-05-22T15:25:15.278Z,2.55
2023-05-22T15:29:18.167Z,2.47
2023-05-22T15:33:21.600Z,2.15
2023-05-22T15:37:23.893Z,2.20
2023-05-22T15:41:26.679Z,1.77
2023-05-22T15:45:28.858Z,2.00
2023-05-22T15:49:31.579Z,2.83
2023-05-22T15:53:33.735Z,2.47
2023-05-22T15:57:35.724Z,2.53
2023-05-22T16:01:37.879Z,2.30
2023-05-22T16:05:40.626Z,2.67
2023-05-22T16:09:43.411Z,2.22
2023-05-22T16:13:45.724Z,2.22
2023-05-22T16:17:47.853Z,2.20
2023-05-22T16:21:50.005Z,2.20
2023-05-22T16:25:52.108Z,2.80
2023-05-22T16:29:54.221Z,2.63
2023-05-22T16:33:56.364Z,2.05
2023-05-22T16:37:58.834Z,2.40
2023-05-22T16:42:01.494Z,2.22
2023-05-22T16:46:04.083Z,2.20
2023-05-22T16:50:07.068Z,2.75
2023-05-22T16:54:09.041Z,2.42
2023-05-22T16:58:12.805Z,2.10
2023-05-22T17:02:15.032Z,3.00
2023-05-22T17:06:20.820Z,2.33
2023-05-22T17:10:23.122Z,2.40
2023-05-22T17:14:26.391Z,2.20
2023-05-22T17:18:28.421Z,2.88
2023-05-22T17:22:30.617Z,2.67
2023-05-22T17:26:34.294Z,2.60
2023-05-22T17:30:36.464Z,2.63
2023-05-22T17:34:38.431Z,2.90
2023-05-22T17:38:40.719Z,2.47
2023-05-22T17:42:42.748Z,2.53
2023-05-22T17:46:44.874Z,2.72
2023-05-22T17:50:47.457Z,2.80
2023-05-22T17:54:49.990Z,2.45
2023-05-22T17:58:52.744Z,3.05
2023-05-22T18:02:54.927Z,2.97
2023-05-22T18:06:57.082Z,2.60
2023-05-22T18:10:59.226Z,3.17
2023-05-22T18:15:01.332Z,2.95
2023-05-22T18:19:04.016Z,2.80
2023-05-22T18:23:06.220Z,3.00
2023-05-22T18:27:08.283Z,3.05
2023-05-22T18:31:10.391Z,4.38
2023-05-22T18:35:12.438Z,6.93
2023-05-22T18:39:14.866Z,6.43
2023-05-22T18:43:17.083Z,7.03
2023-05-22T18:47:19.179Z,7.03
2023-05-22T18:51:22.862Z,6.40
2023-05-22T18:55:24.955Z,7.00
2023-05-22T18:59:27.061Z,7.28
2023-05-22T19:03:29.872Z,8.20
2023-05-22T19:07:32.800Z,9.00
2023-05-22T19:11:36.284Z,8.35
2023-05-22T19:15:38.440Z,7.30
2023-05-22T19:19:41.564Z,7.85
2023-05-22T19:23:45.819Z,9.20
2023-05-22T19:27:48.105Z,9.02
2023-05-22T19:31:50.364Z,9.65
2023-05-22T19:35:53.247Z,9.80
2023-05-22T19:39:55.355Z,9.55
2023-05-22T19:43:57.495Z,9.32
2023-05-22T19:48:00.498Z,8.85
2023-05-22T19:52:04.820Z,8.75
2023-05-22T19:56:06.980Z,8.20
2023-05-22T20:00:11.097Z,7.93
2023-05-22T20:04:14.304Z,7.70
2023-05-22T20:08:16.570Z,7.72
2023-05-22T20:12:18.751Z,7.95
2023-05-22T20:16:21.353Z,7.68
2023-05-22T20:20:26.386Z,9.20
2023-05-22T20:24:28.410Z,9.68
2023-05-22T20:28:31.509Z,8.73
2023-05-22T20:32:34.209Z,9.77
2023-05-22T20:36:36.591Z,9.68
2023-05-22T20:40:38.326Z,10.90
2023-05-22T20:44:41.362Z,11.32
2023-05-22T20:48:46.931Z,10.40
2023-05-22T20:52:49.086Z,10.60
2023-05-22T20:56:52.735Z,12.45
2023-05-22T21:00:54.800Z,11.50
2023-05-22T21:04:56.903Z,11.55
2023-05-22T21:09:01.541Z,11.18
2023-05-22T21:13:03.574Z,10.95
2023-05-22T21:17:06.176Z,12.10
2023-05-22T21:21:08.209Z,12.10
2023-05-22T21:25:10.510Z,12.40
2023-05-22T21:29:12.789Z,12.23
2023-05-22T21:33:14.861Z,11.48
2023-05-22T21:37:17.890Z,12.45
2023-05-22T21:41:19.999Z,10.85
2023-05-22T21:45:22.608Z,12.50
2023-05-22T21:49:24.627Z,12.43
2023-05-22T21:53:26.673Z,11.85
2023-05-22T21:57:28.865Z,12.40
2023-05-22T22:01:30.924Z,12.85
2023-05-22T22:05:33.095Z,12.60
2023-05-22T22:09:35.121Z,12.82
2023-05-22T22:13:37.315Z,11.25
2023-05-22T22:17:40.653Z,13.23
2023-05-22T22:21:42.876Z,13.07
2023-05-22T22:25:44.975Z,12.65
2023-05-22T22:29:47.152Z,11.85
2023-05-22T22:33:49.177Z,11.80
2023-05-22T22:37:51.413Z,10.98
2023-05-22T22:41:53.437Z,11.68
2023-05-22T22:45:55.947Z,11.23
2023-05-22T22:49:58.355Z,10.88
2023-05-22T22:54:00.463Z,10.93
2023-05-22T22:58:02.710Z,11.18
2023-05-22T23:02:05.016Z,12.02
2023-05-22T23:06:07.605Z,11.20
2023-05-22T23:10:09.986Z,11.65
2023-05-22T23:14:13.494Z,11.85
2023-05-22T23:18:15.540Z,11.63
2023-05-22T23:22:18.945Z,12.75
2023-05-22T23:26:21.024Z,13.02
2023-05-22T23:30:23.172Z,12.65
2023-05-22T23:34:25.353Z,12.13
2023-05-22T23:38:27.811Z,11.93
2023-05-22T23:42:29.944Z,13.30
2023-05-22T23:46:32.675Z,12.57
2023-05-22T23:50:34.762Z,13.35
2023-05-22T23:54:36.841Z,13.65
2023-05-22T23:58:39.031Z,12.52
